Time;durP1;ratioP1;P1;durP2;ratioP2;P2;SDS_P1;SDS_P2;PMS_P1;PMS_P2;Temp;Humidity;BMP_temperature;BMP_pressure;BME280_temperature;BME280_humidity;BME280_pressure;Samples;Min_cycle;Max_cycle;Signal;HPM_P1;HPM_P2
2022/05/27 00:02:19;;;;;;;1.40;1.30;;;15.70;99.90;;;;;;6220437;23;20160;-87
2022/05/27 00:04:44;;;;;;;1.20;1.10;;;15.70;99.90;;;;;;6220800;23;20156;-86
2022/05/27 00:07:13;;;;;;;1.55;1.40;;;15.70;99.90;;;;;;6169580;23;20168;-88
2022/05/27 00:09:38;;;;;;;1.88;1.40;;;15.70;99.90;;;;;;6216830;23;20616;-86
2022/05/27 00:12:04;;;;;;;1.38;1.27;;;15.70;99.90;;;;;;6168133;23;20198;-87
2022/05/27 00:14:30;;;;;;;1.88;1.35;;;15.70;99.90;;;;;;6228570;23;20160;-87
2022/05/27 00:16:56;;;;;;;1.95;1.42;;;15.70;99.90;;;;;;6216138;23;20182;-86
2022/05/27 00:19:22;;;;;;;2.05;1.42;;;15.60;99.90;;;;;;6214973;23;20153;-86
2022/05/27 00:21:49;;;;;;;1.58;1.33;;;15.70;99.90;;;;;;6214338;23;20152;-86
2022/05/27 00:24:18;;;;;;;3.13;1.85;;;15.70;99.90;;;;;;6214411;23;20165;-87
2022/05/27 00:26:44;;;;;;;1.02;1.02;;;15.60;99.90;;;;;;6190712;23;20152;-86
2022/05/27 00:29:10;;;;;;;1.75;1.30;;;15.50;99.90;;;;;;6231186;23;20662;-90
2022/05/27 00:31:35;;;;;;;2.13;1.92;;;15.50;99.90;;;;;;6243196;23;20167;-87
2022/05/27 00:34:04;;;;;;;1.25;1.10;;;;;;;;;;6244658;23;20191;-87
2022/05/27 00:36:30;;;;;;;2.83;1.50;;;15.50;99.90;;;;;;6244613;23;20144;-87
2022/05/27 00:38:57;;;;;;;2.20;1.27;;;15.50;99.90;;;;;;6194803;23;20160;-87
2022/05/27 00:41:22;;;;;;;1.75;1.65;;;15.70;99.90;;;;;;6244559;23;20162;-87
2022/05/27 00:43:48;;;;;;;1.08;1.00;;;15.60;99.90;;;;;;6219160;23;20180;-87
2022/05/27 00:46:20;;;;;;;1.27;1.17;;;15.60;99.90;;;;;;6194763;23;20211;-91
2022/05/27 00:48:48;;;;;;;2.65;1.42;;;15.60;99.90;;;;;;6244416;23;20132;-87
2022/05/27 00:51:18;;;;;;;1.40;1.30;;;15.50;99.90;;;;;;6244671;23;20144;-94
2022/05/27 00:54:12;;;;;;;1.25;1.15;;;15.50;99.90;;;;;;6245105;23;20195;-86
2022/05/27 00:56:41;;;;;;;1.20;1.13;;;15.50;99.90;;;;;;6242292;23;20176;-88
2022/05/27 00:59:21;;;;;;;1.40;1.30;;;15.50;99.90;;;;;;6243982;23;20140;-86
2022/05/27 01:01:47;;;;;;;1.80;1.40;;;15.40;99.90;;;;;;6243879;23;20215;-87
2022/05/27 01:04:12;;;;;;;2.00;1.20;;;15.40;99.90;;;;;;6223614;23;20159;-87
2022/05/27 01:06:38;;;;;;;1.40;1.25;;;15.40;99.90;;;;;;6217420;23;20239;-87
2022/05/27 01:09:06;;;;;;;1.17;1.10;;;15.40;99.90;;;;;;6165844;23;20164;-86
2022/05/27 01:12:15;;;;;;;3.50;1.65;;;15.30;99.90;;;;;;6217165;23;20152;-87
2022/05/27 01:15:08;;;;;;;2.05;1.30;;;15.30;99.90;;;;;;6216114;23;20255;-87
2022/05/27 01:17:37;;;;;;;1.23;1.13;;;15.30;99.90;;;;;;6217327;23;20144;-88
2022/05/27 01:20:22;;;;;;;1.50;1.40;;;15.20;99.90;;;;;;6217103;23;20202;-86
2022/05/27 01:22:54;;;;;;;4.00;1.33;;;15.10;99.90;;;;;;6215706;23;20210;-86
2022/05/27 01:25:37;;;;;;;3.60;1.40;;;15.20;99.90;;;;;;6215548;23;20156;-87
2022/05/27 01:28:21;;;;;;;2.22;1.40;;;15.20;99.90;;;;;;6215356;23;20167;-86
2022/05/27 01:31:10;;;;;;;1.80;1.30;;;15.20;99.90;;;;;;6216788;23;20144;-87
2022/05/27 01:33:35;;;;;;;2.05;1.52;;;15.10;99.90;;;;;;6171011;23;20266;-87
2022/05/27 01:36:17;;;;;;;2.88;1.33;;;15.10;99.90;;;;;;6217502;23;20575;-87
2022/05/27 01:38:57;;;;;;;1.65;1.50;;;15.10;99.90;;;;;;6218079;23;20143;-86
2022/05/27 01:42:00;;;;;;;1.42;1.30;;;15.20;99.90;;;;;;6216511;23;20162;-86
2022/05/27 01:44:29;;;;;;;1.42;1.33;;;15.00;99.90;;;;;;6216037;23;20168;-86
2022/05/27 01:46:54;;;;;;;1.65;1.48;;;15.10;99.90;;;;;;6215983;23;20246;-87
2022/05/27 01:49:35;;;;;;;2.17;1.80;;;15.10;99.90;;;;;;6191968;23;20184;-88
2022/05/27 01:52:21;;;;;;;2.05;1.70;;;15.00;99.90;;;;;;6215195;23;20152;-88
2022/05/27 01:55:10;;;;;;;1.90;1.17;;;15.00;99.90;;;;;;6215743;23;20587;-87
2022/05/27 01:57:54;;;;;;;1.38;1.10;;;15.00;99.90;;;;;;6215076;23;20207;-88
2022/05/27 02:00:24;;;;;;;1.45;1.35;;;15.00;99.90;;;;;;6216666;23;20148;-87
2022/05/27 02:03:19;;;;;;;1.50;1.40;;;14.90;99.90;;;;;;6215283;23;20225;-87
2022/05/27 02:05:59;;;;;;;1.60;1.50;;;14.90;99.90;;;;;;6215150;23;20162;-87
2022/05/27 02:08:30;;;;;;;1.40;1.30;;;15.00;99.90;;;;;;6216216;23;20142;-87
2022/05/27 02:11:08;;;;;;;1.98;1.30;;;14.90;99.90;;;;;;6219755;23;20152;-87
2022/05/27 02:13:52;;;;;;;3.28;1.67;;;14.90;99.90;;;;;;6219957;23;20678;-88
2022/05/27 02:16:38;;;;;;;2.00;1.20;;;14.90;99.90;;;;;;6215402;23;20492;-87
2022/05/27 02:19:24;;;;;;;1.45;1.25;;;14.90;99.90;;;;;;6215155;23;20657;-87
2022/05/27 02:21:56;;;;;;;1.50;1.30;;;14.80;99.90;;;;;;6214767;23;20591;-86
2022/05/27 02:24:34;;;;;;;1.85;1.50;;;14.90;99.90;;;;;;6216169;23;20144;-90
2022/05/27 02:27:06;;;;;;;1.40;1.30;;;14.90;99.90;;;;;;6214979;23;20183;-85
2022/05/27 02:29:33;;;;;;;1.10;1.02;;;14.80;99.90;;;;;;6216255;23;20140;-87
2022/05/27 02:32:27;;;;;;;1.50;1.30;;;14.80;99.90;;;;;;6189759;23;20190;-87
2022/05/27 02:35:09;;;;;;;1.60;1.40;;;14.80;99.90;;;;;;6216686;23;20163;-88
2022/05/27 02:38:04;;;;;;;1.40;1.30;;;14.90;99.90;;;;;;6214802;23;20160;-87
2022/05/27 02:40:40;;;;;;;1.63;1.23;;;14.90;99.90;;;;;;6202527;23;20607;-86
2022/05/27 02:43:16;;;;;;;1.55;1.45;;;14.90;99.90;;;;;;6229718;23;20187;-86
2022/05/27 02:46:13;;;;;;;1.35;1.25;;;14.90;99.90;;;;;;6219478;23;20161;-86
2022/05/27 02:48:51;;;;;;;1.73;1.30;;;14.90;99.90;;;;;;6246256;23;20638;-85
2022/05/27 02:51:26;;;;;;;3.55;1.30;;;14.90;99.90;;;;;;6245938;23;20207;-86
2022/05/27 02:54:11;;;;;;;3.20;1.30;;;14.80;99.90;;;;;;6246896;23;20167;-86
2022/05/27 02:56:48;;;;;;;3.70;1.25;;;14.80;99.90;;;;;;6219544;23;20167;-86
2022/05/27 02:59:17;;;;;;;2.22;1.65;;;14.80;99.90;;;;;;6246426;23;20136;-86
2022/05/27 03:01:45;;;;;;;1.55;1.45;;;14.70;99.90;;;;;;6194691;23;20229;-85
2022/05/27 03:04:11;;;;;;;1.50;1.40;;;14.70;99.90;;;;;;6219710;23;20155;-87
2022/05/27 03:07:05;;;;;;;1.67;1.42;;;14.70;99.90;;;;;;6246350;23;20151;-87
2022/05/27 03:10:08;;;;;;;3.40;1.70;;;14.70;99.90;;;;;;6223029;23;20167;-87
2022/05/27 03:13:11;;;;;;;1.35;1.25;;;14.70;99.90;;;;;;6219622;23;20183;-86
2022/05/27 03:15:55;;;;;;;1.33;1.23;;;14.70;99.90;;;;;;6178678;23;20163;-86
2022/05/27 03:18:35;;;;;;;2.10;1.85;;;14.70;99.90;;;;;;6248597;23;20199;-85
2022/05/27 03:21:00;;;;;;;3.33;1.55;;;14.70;99.90;;;;;;6197374;23;20159;-86
2022/05/27 03:23:45;;;;;;;1.40;1.30;;;14.70;99.90;;;;;;6249942;23;20151;-85
2022/05/27 03:26:22;;;;;;;2.45;1.48;;;14.70;99.90;;;;;;6220187;23;20163;-86
2022/05/27 03:28:54;;;;;;;2.40;1.20;;;14.70;99.90;;;;;;6248070;23;20146;-86
2022/05/27 03:31:30;;;;;;;1.55;1.20;;;14.80;99.90;;;;;;6219468;23;20160;-87
2022/05/27 03:34:04;;;;;;;1.60;1.38;;;14.80;99.90;;;;;;6246206;23;20178;-86
2022/05/27 03:36:50;;;;;;;1.35;1.13;;;14.80;99.90;;;;;;6219433;23;20159;-87
2022/05/27 03:39:26;;;;;;;1.98;1.27;;;14.80;99.90;;;;;;6246196;23;20139;-87
2022/05/27 03:42:00;;;;;;;1.27;1.17;;;14.90;99.90;;;;;;6246076;23;20139;-87
2022/05/27 03:44:27;;;;;;;1.83;1.50;;;15.00;99.90;;;;;;6246541;23;20533;-86
2022/05/27 03:46:55;;;;;;;3.45;1.50;;;15.00;99.90;;;;;;6245754;23;20156;-87
2022/05/27 03:49:21;;;;;;;2.22;1.65;;;15.10;99.90;;;;;;6246215;23;20288;-87
2022/05/27 03:52:07;;;;;;;2.90;1.95;;;15.10;99.90;;;;;;6219350;23;20194;-87
2022/05/27 03:54:33;;;;;;;2.92;1.40;;;15.20;99.90;;;;;;6219815;23;20167;-89
2022/05/27 03:57:00;;;;;;;1.65;1.20;;;15.20;99.90;;;;;;6194685;23;20571;-87
2022/05/27 03:59:26;;;;;;;1.83;1.40;;;15.40;99.90;;;;;;6220263;23;20237;-86
2022/05/27 04:01:55;;;;;;;4.55;1.42;;;15.40;99.90;;;;;;6220262;23;20201;-87
2022/05/27 04:04:25;;;;;;;1.52;1.15;;;15.40;99.90;;;;;;6222684;23;20159;-86
2022/05/27 04:06:51;;;;;;;2.65;1.33;;;15.40;99.90;;;;;;6224422;23;20155;-87
2022/05/27 04:09:18;;;;;;;1.88;1.50;;;15.40;99.90;;;;;;6253473;23;20151;-86
2022/05/27 04:11:44;;;;;;;1.95;1.33;;;15.40;99.90;;;;;;6174308;23;20159;-88
2022/05/27 04:14:11;;;;;;;3.35;1.42;;;15.30;99.90;;;;;;6221329;23;20182;-87
2022/05/27 04:16:37;;;;;;;2.25;1.30;;;15.40;99.90;;;;;;6195648;23;20163;-89
2022/05/27 04:19:03;;;;;;;3.35;1.88;;;15.30;99.90;;;;;;6220937;23;20156;-88
2022/05/27 04:21:29;;;;;;;3.35;1.73;;;15.30;99.90;;;;;;6225665;23;20159;-88
2022/05/27 04:23:54;;;;;;;2.15;1.52;;;15.30;99.90;;;;;;6238655;23;20151;-88
2022/05/27 04:26:21;;;;;;;1.67;1.20;;;15.20;99.90;;;;;;6254275;23;20181;-87
2022/05/27 04:28:47;;;;;;;1.95;1.50;;;15.20;99.90;;;;;;6247889;23;20151;-87
2022/05/27 04:31:13;;;;;;;2.50;1.90;;;15.20;99.90;;;;;;6222079;23;20651;-86
2022/05/27 04:33:41;;;;;;;5.45;1.70;;;15.20;99.90;;;;;;6220960;23;20639;-87
2022/05/27 04:36:07;;;;;;;2.03;1.52;;;15.20;99.90;;;;;;6221175;23;20160;-87
2022/05/27 04:38:35;;;;;;;1.90;1.65;;;15.20;99.90;;;;;;6222763;23;20156;-86
2022/05/27 04:41:01;;;;;;;1.65;1.55;;;15.20;99.90;;;;;;6220790;23;20158;-86
2022/05/27 04:43:27;;;;;;;4.05;1.83;;;15.10;99.90;;;;;;6247219;23;20195;-89
2022/05/27 04:45:53;;;;;;;1.38;1.27;;;15.10;99.90;;;;;;6220529;23;20201;-85
2022/05/27 04:48:19;;;;;;;3.10;1.33;;;15.20;99.90;;;;;;6247802;23;20152;-85
2022/05/27 04:50:45;;;;;;;2.33;1.90;;;15.20;99.90;;;;;;6220680;23;20190;-86
2022/05/27 04:53:12;;;;;;;1.52;1.42;;;15.20;99.90;;;;;;6248072;23;20171;-86
2022/05/27 04:55:40;;;;;;;2.95;2.00;;;15.20;99.90;;;;;;6196399;23;20214;-86
2022/05/27 04:58:07;;;;;;;1.75;1.60;;;15.20;99.90;;;;;;6247415;23;20186;-87
2022/05/27 05:00:36;;;;;;;3.03;1.52;;;15.20;99.90;;;;;;6246653;23;20159;-85
2022/05/27 05:03:03;;;;;;;2.95;1.83;;;15.20;99.90;;;;;;6245746;23;20184;-86
2022/05/27 05:05:31;;;;;;;1.80;1.63;;;15.20;99.90;;;;;;6219802;23;20192;-86
2022/05/27 05:08:15;;;;;;;2.97;1.60;;;15.20;99.90;;;;;;6246833;23;20205;-86
2022/05/27 05:10:41;;;;;;;4.43;1.70;;;15.20;99.90;;;;;;6247106;23;20143;-87
2022/05/27 05:13:07;;;;;;;1.55;1.15;;;15.30;99.90;;;;;;6218891;23;20254;-86
2022/05/27 05:15:33;;;;;;;1.70;1.60;;;15.30;99.90;;;;;;6218979;23;20187;-84
2022/05/27 05:17:59;;;;;;;1.80;1.33;;;15.30;99.90;;;;;;6218540;23;20167;-85
2022/05/27 05:20:31;;;;;;;1.95;1.52;;;15.30;99.90;;;;;;6219393;23;20212;-85
2022/05/27 05:22:57;;;;;;;2.20;1.55;;;15.40;99.90;;;;;;6243738;23;20154;-85
2022/05/27 05:25:23;;;;;;;2.42;1.42;;;15.40;99.90;;;;;;6219465;23;20162;-86
2022/05/27 05:27:50;;;;;;;2.88;1.98;;;15.40;99.90;;;;;;6193003;23;20167;-87
2022/05/27 05:30:18;;;;;;;1.60;1.33;;;15.40;99.90;;;;;;6192809;23;20493;-85
2022/05/27 05:32:44;;;;;;;2.17;1.52;;;15.40;99.90;;;;;;6243788;23;20175;-87
2022/05/27 05:35:12;;;;;;;3.72;1.73;;;15.40;99.90;;;;;;6245373;23;20162;-87
2022/05/27 05:37:45;;;;;;;1.98;1.42;;;15.40;99.90;;;;;;6223881;23;20164;-87
2022/05/27 05:40:12;;;;;;;1.95;1.75;;;15.40;99.90;;;;;;6221400;23;20212;-88
2022/05/27 05:42:46;;;;;;;2.35;1.70;;;15.40;99.90;;;;;;6220651;23;20654;-88
2022/05/27 05:45:16;;;;;;;1.70;1.48;;;15.40;99.90;;;;;;6220804;23;20162;-87
2022/05/27 05:47:42;;;;;;;3.20;1.92;;;;;;;;;;6247350;23;20150;-87
2022/05/27 05:50:12;;;;;;;6.50;1.75;;;15.50;99.90;;;;;;6222195;23;20155;-88
2022/05/27 05:52:40;;;;;;;2.20;1.55;;;15.40;99.90;;;;;;6225997;23;20183;-87
2022/05/27 05:55:10;;;;;;;5.65;1.92;;;15.50;99.90;;;;;;6199755;23;20274;-86
2022/05/27 05:57:56;;;;;;;1.60;1.40;;;15.50;99.90;;;;;;6221622;23;20601;-86
2022/05/27 06:00:44;;;;;;;2.80;1.40;;;15.60;99.90;;;;;;6173122;23;20481;-86
2022/05/27 06:03:21;;;;;;;;;;;;;;;;;;;;;
2022/05/27 06:05:54;;;;;;;15.23;3.83;;;15.50;99.90;;;;;;6254860;23;20162;-88
2022/05/27 06:08:38;;;;;;;3.33;2.08;;;;;;;;;;6222133;23;20148;-87
2022/05/27 06:14:48;;;;;;;1.75;1.52;;;15.50;99.90;;;;;;6247921;23;20269;-87
2022/05/27 06:17:14;;;;;;;2.28;1.30;;;15.50;99.90;;;;;;6247957;23;20147;-87
2022/05/27 06:19:39;;;;;;;2.45;1.80;;;15.50;99.90;;;;;;6170612;23;20194;-87
2022/05/27 06:22:05;;;;;;;2.42;1.40;;;15.50;99.90;;;;;;6195082;23;20163;-87
2022/05/27 06:24:31;;;;;;;2.13;1.88;;;;;;;;;;6220489;23;20209;-87
2022/05/27 06:26:59;;;;;;;3.40;1.75;;;15.50;99.90;;;;;;6220154;23;20163;-87
2022/05/27 06:34:54;;;;;;;2.58;1.65;;;15.70;99.90;;;;;;6203099;23;20526;-86
2022/05/27 06:37:21;;;;;;;3.42;1.98;;;15.80;99.90;;;;;;6220001;23;20250;-87
2022/05/27 06:39:48;;;;;;;2.50;1.48;;;15.80;99.90;;;;;;6195340;23;20166;-88
2022/05/27 06:42:15;;;;;;;3.10;1.95;;;15.80;99.90;;;;;;6265579;22;20155;-88
2022/05/27 06:44:41;;;;;;;2.30;2.10;;;15.90;99.90;;;;;;6223487;22;20194;-88
2022/05/27 06:47:09;;;;;;;3.85;2.08;;;15.90;99.90;;;;;;6273989;22;20159;-87
2022/05/27 06:49:46;;;;;;;4.93;1.92;;;16.00;99.90;;;;;;6222917;22;20148;-86
2022/05/27 06:52:15;;;;;;;1.88;1.75;;;16.30;99.90;;;;;;6247376;22;20147;-88
2022/05/27 06:54:52;;;;;;;3.08;2.22;;;15.90;99.90;;;;;;6273587;22;20158;-87
2022/05/27 06:57:21;;;;;;;1.85;1.73;;;;;;;;;;6225490;23;20162;-90
2022/05/27 06:59:49;;;;;;;1.83;1.73;;;15.90;99.90;;;;;;6273549;22;20166;-87
2022/05/27 07:02:27;;;;;;;;;;;;;;;;;;;;;
2022/05/27 07:05:01;;;;;;;2.70;1.73;;;18.70;99.90;;;;;;6271627;22;20143;-91
2022/05/27 07:07:29;;;;;;;2.75;1.77;;;15.70;99.90;;;;;;6221191;22;20142;-90
2022/05/27 07:09:57;;;;;;;2.45;1.50;;;16.70;99.90;;;;;;6246070;22;20135;-93
2022/05/27 07:12:30;;;;;;;2.15;1.90;;;16.10;99.90;;;;;;6244496;22;20202;-87
2022/05/27 07:14:56;;;;;;;2.78;1.55;;;;;;;;;;6233734;23;20183;-90
2022/05/27 07:17:32;;;;;;;;;;;;;;;;;;;;;
2022/05/27 07:19:58;;;;;;;2.88;2.03;;;13.00;99.90;;;;;;6225884;23;20531;-88
2022/05/27 07:22:27;;;;;;;3.65;1.52;;;;;;;;;;6226518;23;20155;-88
2022/05/27 07:24:59;;;;;;;2.47;1.63;;;16.40;99.90;;;;;;6225732;23;20239;-91
2022/05/27 07:27:41;;;;;;;3.85;2.53;;;17.40;99.90;;;;;;6248992;23;20173;-85
2022/05/27 07:30:16;;;;;;;1.98;1.50;;;14.70;99.90;;;;;;6224263;23;20185;-87
2022/05/27 07:32:45;;;;;;;6.45;1.95;;;16.60;99.90;;;;;;6201551;23;20212;-87
2022/05/27 07:35:15;;;;;;;3.10;2.25;;;16.70;99.90;;;;;;6196988;23;20171;-86
2022/05/27 07:37:43;;;;;;;4.05;1.92;;;16.90;99.90;;;;;;6222401;23;20204;-87
2022/05/27 07:40:12;;;;;;;2.78;1.67;;;16.90;99.90;;;;;;6193851;23;20483;-87
2022/05/27 07:42:43;;;;;;;2.72;1.98;;;17.70;99.90;;;;;;6218442;23;20198;-87
2022/05/27 07:45:12;;;;;;;2.95;2.00;;;17.00;99.90;;;;;;6220452;23;20229;-86
2022/05/27 07:47:38;;;;;;;2.17;1.83;;;17.00;99.90;;;;;;6220483;23;20186;-87
2022/05/27 07:50:07;;;;;;;2.05;1.80;;;17.30;99.90;;;;;;6220510;23;20165;-88
2022/05/27 07:52:38;;;;;;;3.60;2.25;;;17.10;99.90;;;;;;6221434;23;20186;-87
2022/05/27 07:55:07;;;;;;;2.75;1.70;;;17.40;99.90;;;;;;6223201;23;20643;-87
2022/05/27 07:57:36;;;;;;;2.10;1.90;;;;;;;;;;6252599;23;20701;-88
2022/05/27 08:00:06;;;;;;;2.35;1.95;;;17.40;99.90;;;;;;6268082;23;20199;-93
2022/05/27 08:02:32;;;;;;;1.98;1.70;;;;;;;;;;6219842;23;20167;-86
2022/05/27 08:05:05;;;;;;;3.05;1.65;;;17.50;99.90;;;;;;6212805;23;20156;-85
2022/05/27 08:07:34;;;;;;;2.75;1.60;;;17.70;99.90;;;;;;6237112;23;20194;-85
2022/05/27 08:10:00;;;;;;;2.55;1.70;;;;;;;;;;6243490;23;20643;-88
2022/05/27 08:12:44;;;;;;;2.50;1.70;;;18.00;99.90;;;;;;6223434;23;20186;-85
2022/05/27 08:15:11;;;;;;;1.98;1.58;;;18.50;99.90;;;;;;6220393;23;20158;-86
2022/05/27 08:17:40;;;;;;;2.88;1.77;;;18.00;99.90;;;;;;6221403;23;20570;-86
2022/05/27 08:20:09;;;;;;;1.73;1.50;;;18.10;99.90;;;;;;6246345;23;20217;-86
2022/05/27 08:22:39;;;;;;;2.92;1.67;;;17.80;99.90;;;;;;6219277;23;20229;-87
2022/05/27 08:25:07;;;;;;;2.08;1.73;;;17.70;99.90;;;;;;6245502;23;20215;-88
2022/05/27 08:27:34;;;;;;;3.85;1.80;;;;;;;;;;6245420;23;20148;-88
2022/05/27 08:29:59;;;;;;;4.05;1.98;;;17.70;99.90;;;;;;6218592;23;20579;-86
2022/05/27 08:32:25;;;;;;;2.38;2.00;;;;;;;;;;6245137;23;20210;-87
2022/05/27 08:40:35;;;;;;;3.90;2.30;;;17.70;99.90;;;;;;6246433;23;20162;-87
2022/05/27 08:43:19;;;;;;;3.72;2.20;;;17.70;99.90;;;;;;6219904;23;20199;-87
2022/05/27 08:46:00;;;;;;;3.20;1.55;;;17.80;99.90;;;;;;6245739;23;20508;-86
2022/05/27 08:48:32;;;;;;;2.35;1.85;;;17.80;99.90;;;;;;6219250;23;20163;-86
2022/05/27 08:51:06;;;;;;;2.45;1.92;;;17.80;99.90;;;;;;6222192;23;20214;-87
2022/05/27 08:53:41;;;;;;;4.70;2.15;;;17.90;99.90;;;;;;6222071;23;20179;-88
2022/05/27 08:59:26;;;;;;;2.97;1.40;;;18.00;99.90;;;;;;6251727;23;20177;-87
2022/05/27 09:01:57;;;;;;;1.80;1.48;;;18.00;99.90;;;;;;6222328;23;20217;-88
2022/05/27 09:04:34;;;;;;;3.05;1.42;;;18.00;99.90;;;;;;6223032;23;20162;-88
2022/05/27 09:07:13;;;;;;;1.98;1.63;;;18.00;99.90;;;;;;6248638;23;20139;-86
2022/05/27 09:09:38;;;;;;;3.28;1.70;;;18.00;99.90;;;;;;6221234;23;20166;-86
2022/05/27 09:12:52;;;;;;;1.40;1.30;;;18.00;99.90;;;;;;6249217;23;20156;-87
2022/05/27 09:15:32;;;;;;;2.10;1.30;;;17.90;99.90;;;;;;6215471;23;20186;-87
2022/05/27 09:18:24;;;;;;;1.45;1.02;;;17.80;99.90;;;;;;6224215;23;20151;-88
2022/05/27 09:21:11;;;;;;;2.00;1.27;;;17.80;99.90;;;;;;6222909;23;20159;-88
2022/05/27 09:24:11;;;;;;;1.85;1.40;;;17.80;99.90;;;;;;6221736;23;20519;-85
2022/05/27 09:27:02;;;;;;;1.27;1.17;;;17.80;99.90;;;;;;6221521;23;20159;-85
2022/05/27 09:29:44;;;;;;;2.05;1.80;;;17.80;99.90;;;;;;6249454;23;20143;-87
2022/05/27 09:32:30;;;;;;;1.23;1.13;;;17.60;99.90;;;;;;6231758;23;20160;-88
2022/05/27 09:34:58;;;;;;;2.35;1.58;;;17.50;99.90;;;;;;6220523;23;20163;-85
2022/05/27 09:37:34;;;;;;;3.50;1.75;;;17.40;99.90;;;;;;6195448;23;20156;-88
2022/05/27 09:40:06;;;;;;;3.22;1.60;;;17.30;99.90;;;;;;6221297;23;20151;-89
2022/05/27 09:42:42;;;;;;;1.45;1.35;;;17.30;99.90;;;;;;6220819;23;20191;-88
2022/05/27 09:45:08;;;;;;;1.75;1.40;;;17.20;99.90;;;;;;6221522;23;20578;-88
2022/05/27 09:47:35;;;;;;;4.38;1.25;;;17.20;99.90;;;;;;6222344;23;20163;-88
2022/05/27 09:50:04;;;;;;;3.88;1.10;;;17.20;99.90;;;;;;6247732;23;20617;-88
2022/05/27 09:52:35;;;;;;;2.35;1.50;;;17.10;99.90;;;;;;6221675;23;20552;-86
2022/05/27 09:55:31;;;;;;;2.60;1.20;;;17.10;99.90;;;;;;6224160;23;20151;-86
2022/05/27 09:58:01;;;;;;;1.52;1.27;;;17.10;99.90;;;;;;6221704;23;20155;-90
2022/05/27 10:00:45;;;;;;;2.80;1.13;;;17.10;99.90;;;;;;6225884;23;20587;-88
2022/05/27 10:03:41;;;;;;;3.72;1.15;;;17.10;99.90;;;;;;6265566;22;20134;-86
2022/05/27 10:06:08;;;;;;;1.75;1.15;;;17.10;99.90;;;;;;6226290;23;20170;-87
2022/05/27 10:08:50;;;;;;;1.85;1.38;;;17.20;99.90;;;;;;6220379;23;20562;-86
2022/05/27 10:11:24;;;;;;;4.35;1.20;;;17.20;99.90;;;;;;6248227;23;20139;-87
2022/05/27 10:14:10;;;;;;;1.23;1.02;;;17.30;99.90;;;;;;6248205;23;20171;-89
2022/05/27 10:16:39;;;;;;;2.05;1.25;;;17.30;99.90;;;;;;6206751;23;20166;-87
2022/05/27 10:19:13;;;;;;;1.88;1.08;;;15.80;99.90;;;;;;6220424;23;20166;-88
2022/05/27 10:22:15;;;;;;;2.60;1.80;;;17.30;99.90;;;;;;6219376;23;20159;-87
2022/05/27 10:24:44;;;;;;;1.75;1.55;;;17.30;99.90;;;;;;6230878;23;20216;-88
2022/05/27 10:27:14;;;;;;;1.15;1.00;;;17.30;99.90;;;;;;6247210;23;20218;-88
2022/05/27 10:29:53;;;;;;;1.52;1.30;;;17.20;99.90;;;;;;6220075;23;20159;-87
2022/05/27 10:32:38;;;;;;;4.93;1.17;;;17.20;99.90;;;;;;6247089;23;20574;-87
2022/05/27 10:35:07;;;;;;;1.63;1.33;;;17.20;99.90;;;;;;6222394;23;20155;-91
2022/05/27 10:37:49;;;;;;;1.40;1.30;;;17.20;99.90;;;;;;6222289;23;20590;-90
2022/05/27 10:40:23;;;;;;;1.73;1.30;;;17.20;99.90;;;;;;6249233;23;20167;-89
2022/05/27 10:42:54;;;;;;;2.05;1.27;;;17.30;99.90;;;;;;6221325;23;20199;-86
2022/05/27 10:45:35;;;;;;;1.65;1.55;;;17.30;99.90;;;;;;6247529;23;20159;-88
2022/05/27 10:48:28;;;;;;;1.67;1.17;;;17.30;99.90;;;;;;6222011;23;20159;-87
2022/05/27 10:51:16;;;;;;;2.63;1.35;;;17.30;99.90;;;;;;6247080;23;20139;-87
2022/05/27 10:53:56;;;;;;;4.75;1.40;;;17.20;99.90;;;;;;6245596;23;20197;-86
2022/05/27 10:56:34;;;;;;;2.47;1.40;;;17.20;99.90;;;;;;6219456;23;20163;-88
2022/05/27 11:02:20;;;;;;;2.72;1.80;;;17.10;99.90;;;;;;6246156;23;20186;-88
2022/05/27 11:05:31;;;;;;;2.20;2.00;;;17.00;99.90;;;;;;6219190;23;20151;-90
2022/05/27 11:08:18;;;;;;;1.48;1.25;;;17.00;99.90;;;;;;6214493;23;20234;-88
2022/05/27 11:10:50;;;;;;;2.47;2.28;;;16.90;99.90;;;;;;6246751;23;20142;-86
2022/05/27 11:16:46;;;;;;;1.42;1.10;;;16.80;99.90;;;;;;6247194;23;20150;-89
2022/05/27 11:19:34;;;;;;;6.32;2.47;;;16.60;99.90;;;;;;6223067;23;20568;-89
2022/05/27 11:22:31;;;;;;;1.35;1.25;;;16.50;99.90;;;;;;6223785;23;20155;-90
2022/05/27 11:25:08;;;;;;;1.65;1.30;;;16.50;99.90;;;;;;6222978;23;20155;-87
2022/05/27 11:27:52;;;;;;;2.25;1.50;;;16.40;99.90;;;;;;6224867;23;20183;-86
2022/05/27 11:30:42;;;;;;;1.73;1.63;;;16.30;99.90;;;;;;6225392;23;20197;-87
2022/05/27 11:33:23;;;;;;;2.33;1.55;;;16.20;99.90;;;;;;6251346;23;20646;-88
2022/05/27 11:36:23;;;;;;;3.20;2.42;;;16.10;99.90;;;;;;6221363;23;20167;-87
2022/05/27 11:39:13;;;;;;;3.97;2.88;;;16.00;99.90;;;;;;6221971;23;20163;-86
2022/05/27 11:42:07;;;;;;;5.20;3.92;;;15.70;99.90;;;;;;6247023;23;20158;-86
2022/05/27 11:44:53;;;;;;;5.47;4.00;;;15.70;99.90;;;;;;6246536;23;20254;-89
2022/05/27 11:47:21;;;;;;;2.83;2.53;;;15.40;99.90;;;;;;6221206;23;20155;-86
2022/05/27 11:50:11;;;;;;;4.10;2.35;;;15.30;99.90;;;;;;6221167;23;20570;-86
2022/05/27 11:53:07;;;;;;;1.27;1.08;;;15.20;99.90;;;;;;6250131;23;20202;-90
2022/05/27 11:55:42;;;;;;;1.67;1.58;;;14.70;99.90;;;;;;6222768;23;20225;-90
2022/05/27 11:58:25;;;;;;;1.88;1.38;;;14.00;99.90;;;;;;6221623;23;20161;-87
2022/05/27 12:00:57;;;;;;;1.35;1.25;;;13.50;99.90;;;;;;6223580;23;20212;-88
2022/05/27 12:03:29;;;;;;;1.42;0.88;;;13.40;99.90;;;;;;6226204;23;20163;-87
2022/05/27 12:06:01;;;;;;;1.50;1.15;;;13.00;99.90;;;;;;6221564;23;20150;-89
2022/05/27 12:08:45;;;;;;;0.80;0.80;;;12.90;99.90;;;;;;6219901;23;20182;-89
2022/05/27 12:11:39;;;;;;;1.42;1.20;;;12.50;99.90;;;;;;6219546;23;20169;-89
2022/05/27 12:14:15;;;;;;;2.08;1.30;;;12.90;99.90;;;;;;6245282;23;20537;-90
2022/05/27 12:16:44;;;;;;;1.55;1.30;;;12.90;99.90;;;;;;6246258;23;20566;-89
2022/05/27 12:19:21;;;;;;;1.40;1.30;;;12.90;99.90;;;;;;6218846;23;20165;-88
2022/05/27 12:22:18;;;;;;;2.33;1.95;;;12.90;99.90;;;;;;6218766;23;20191;-89
2022/05/27 12:24:48;;;;;;;3.40;2.08;;;12.90;99.90;;;;;;6227172;23;20156;-88
2022/05/27 12:27:17;;;;;;;2.53;2.17;;;12.80;99.90;;;;;;6248045;23;20574;-87
2022/05/27 12:29:47;;;;;;;2.58;2.10;;;12.90;99.90;;;;;;6248471;23;20179;-88
2022/05/27 12:32:15;;;;;;;2.90;1.80;;;12.90;99.90;;;;;;6221792;23;20159;-88
2022/05/27 12:34:48;;;;;;;4.95;2.17;;;12.90;99.90;;;;;;6251140;23;20151;-88
2022/05/27 12:37:13;;;;;;;1.65;1.55;;;12.90;99.90;;;;;;6225298;23;20160;-89
2022/05/27 12:39:41;;;;;;;3.28;2.40;;;12.90;99.90;;;;;;6226289;23;20639;-89
2022/05/27 12:42:28;;;;;;;2.83;2.30;;;12.90;99.90;;;;;;6198889;23;20160;-87
2022/05/27 12:44:54;;;;;;;2.78;2.20;;;13.00;99.90;;;;;;6225314;23;20210;-83
2022/05/27 12:47:23;;;;;;;5.05;3.17;;;12.90;99.90;;;;;;6259472;23;20221;-87
2022/05/27 12:49:59;;;;;;;2.72;1.88;;;12.80;99.90;;;;;;6247168;22;20159;-87
2022/05/27 12:52:28;;;;;;;4.20;2.90;;;12.60;99.90;;;;;;6249864;22;20142;-88
2022/05/27 12:54:54;;;;;;;1.98;1.75;;;12.50;99.90;;;;;;6242823;22;20167;-85
2022/05/27 13:00:55;;;;;;;2.20;1.85;;;11.90;99.90;;;;;;6275178;22;20186;-89
2022/05/27 13:03:33;;;;;;;2.67;2.47;;;12.20;99.90;;;;;;6249598;22;20147;-86
2022/05/27 13:06:15;;;;;;;3.47;0.90;;;12.10;99.90;;;;;;6249574;22;20170;-87
2022/05/27 13:08:46;;;;;;;1.20;1.15;;;11.90;99.90;;;;;;6249355;22;20179;-89
2022/05/27 13:11:25;;;;;;;1.65;1.13;;;11.80;99.90;;;;;;6273637;22;20163;-88
2022/05/27 13:13:59;;;;;;;0.90;0.90;;;11.70;99.90;;;;;;6249345;23;20250;-88
2022/05/27 13:16:40;;;;;;;0.93;0.93;;;11.30;99.90;;;;;;6248840;22;20139;-89
2022/05/27 13:19:09;;;;;;;1.10;1.00;;;11.60;99.90;;;;;;6248963;23;20159;-88
2022/05/27 13:22:05;;;;;;;1.15;1.05;;;11.60;99.90;;;;;;6247288;23;20165;-93
2022/05/27 13:24:40;;;;;;;1.23;1.13;;;11.70;99.90;;;;;;6222156;23;20155;-87
2022/05/27 13:27:18;;;;;;;1.50;1.27;;;11.60;99.90;;;;;;6220790;23;20536;-90
2022/05/27 13:29:59;;;;;;;1.75;1.00;;;11.60;99.90;;;;;;6220980;23;20165;-87
2022/05/27 13:32:29;;;;;;;1.15;0.80;;;11.50;99.90;;;;;;6247683;23;20139;-88
2022/05/27 13:35:09;;;;;;;1.25;1.15;;;11.50;99.90;;;;;;6220487;23;20163;-87
2022/05/27 13:37:38;;;;;;;2.65;1.83;;;11.50;99.90;;;;;;6221647;23;20189;-87
2022/05/27 13:40:07;;;;;;;3.78;1.55;;;11.50;99.90;;;;;;6220371;23;20182;-88
2022/05/27 13:42:46;;;;;;;1.70;1.17;;;11.50;99.90;;;;;;6247958;23;20190;-90
2022/05/27 13:45:30;;;;;;;2.05;1.52;;;11.50;99.90;;;;;;6248476;23;20167;-87
2022/05/27 13:48:28;;;;;;;1.13;1.05;;;11.40;99.90;;;;;;6248756;23;20231;-89
2022/05/27 13:51:13;;;;;;;1.90;1.40;;;11.40;99.90;;;;;;6248976;23;20132;-92
2022/05/27 13:53:42;;;;;;;3.95;2.45;;;11.50;99.90;;;;;;6221348;23;20178;-89
2022/05/27 13:56:13;;;;;;;2.45;1.80;;;11.50;99.90;;;;;;6220546;23;20159;-87
2022/05/27 13:58:47;;;;;;;2.15;1.27;;;11.50;99.90;;;;;;6249452;23;20143;-89
2022/05/27 14:01:13;;;;;;;3.85;1.70;;;11.50;99.90;;;;;;6234105;23;20182;-87